首页
METAR-TAF:

METAR-TAF

机场 :

Pecos, 得克萨斯州, 美国

纬度: 31-22-56N, 经度: 103-30-38W, 海拔: 796米

当前天气观测

该预报发布于35分钟前的23:35 UTC
风速11节,风向,有时为14节阵风
温度 38°C
湿度 20%
气压 1013 hPa
能見度: 16.1公里
天空无云

METAR: KPEQ 152335Z AUTO 09011G14KT 10SM CLR 38/11 A2990 RMK AO2 T03750111

时间: 19:10 (00:10 UTC)

预报

该预报发布于50分钟前的23:20 UTC
预报有效从16日的 00点(UTC)到 16日的 24点(UTC)
风速10节,风向
能見度: 10公里
散云层高于10000英尺

TAF: KPEQ 152320Z 1600/1624 10010KT P6SM SCT100

超过4000个机场的气象观测和天气预报(METAR&TAF报告)。

可查询的气象台以黄色和红色小点在地图上表示。

将鼠标移到小点上方,可查看气象台名称。

然后点击查看天气观测和预报。

如需切换地图:点击带黑十字的绿色按钮放大地图;点击带横线的绿色按钮缩小地图;或者点击绿色箭头查看邻近地区的地图。


METAR-TAF: